Flight Track Log - Related Links

Times and Time Zones

All times are in EDT time to prevent confusion due to time zone crossing. See the AAY817 flight status page for this flight to view local times or setup timezone preferences in your user account.

Time Position Orientation Groundspeed Altitude Reporting Facility
EDT Latitude Longitude Course Direction KTS MPH feet Rate Location/Type
Mon 02:52:40 PM 38.3781 -82.6294 210° Southwest 173 199 3,200  Level Indianapolis Center
Mon 02:53:43 PM 38.3253 -82.6681 210° Southwest 219 252 4,900 2,208 Climbing Indianapolis Center
Mon 02:54:45 PM 38.2525 -82.6853 191° South 261 300 7,800 2,468 Climbing Indianapolis Center
Mon 02:55:47 PM 38.1739 -82.6828 179° South 279 321 10,000 1,935 Climbing Indianapolis Center
Mon 02:56:49 PM 38.0781 -82.7067 191° South 301 346 11,800 1,935 Climbing Indianapolis Center
Mon 02:57:51 PM 37.9817 -82.7333 192° South 343 395 14,000 2,274 Climbing Indianapolis Center
Mon 02:58:53 PM 37.8764 -82.7344 180° South 373 429 16,500 1,984 Climbing Indianapolis Center
Mon 02:59:55 PM 37.7692 -82.7342 180° South 379 436 18,100 1,742 Climbing Indianapolis Center
Mon 03:00:57 PM 37.6569 -82.7300 178° South 396 456 20,100 2,081 Climbing Indianapolis Center
Mon 03:01:59 PM 37.5228 -82.7258 179° South 408 470 22,400 1,935 Climbing Indianapolis Center
Mon 03:03:01 PM 37.4053 -82.7236 179° South 415 478 24,100 1,597 Climbing Indianapolis Center
Mon 03:04:03 PM 37.2850 -82.7197 179° South 424 488 25,700 1,440 Climbing Indianapolis Center
Mon 03:05:06 PM 37.1628 -82.7164 179° South 432 497 27,100 1,296 Climbing Indianapolis Center
Mon 03:06:08 PM 37.0378 -82.7125 179° South 440 506 28,400 1,210 Climbing Indianapolis Center
Mon 03:07:10 PM 36.9081 -82.7083 179° South 452 520 29,600 1,258 Climbing Indianapolis Center
Mon 03:08:12 PM 36.7769 -82.7056 179° South 458 527 31,000 1,403 Climbing Indianapolis Center
Mon 03:09:14 PM 36.6281 -82.7025 179° South 457 526 32,500 1,306 Climbing Indianapolis Center
Mon 03:10:16 PM 36.5011 -82.6992 179° South 456 525 33,700 1,161 Climbing Indianapolis Center
Mon 03:11:18 PM 36.3744 -82.6958 179° South 456 525 34,900 1,016 Climbing Indianapolis Center
Mon 03:12:20 PM 36.2492 -82.6922 179° South 454 522 35,800 508 Climbing Indianapolis Center
Mon 03:13:28 PM 36.0967 -82.6897 179° South 455 524 36,000 94 Climbing Atlanta Center
Mon 03:14:28 PM 35.9778 -82.6864 179° South 447 514 36,000 -50 Level Atlanta Center
Mon 03:15:28 PM 35.8567 -82.6833 179° South 442 509 35,900  Descending Atlanta Center
Mon 03:16:28 PM 35.7336 -82.6778 178° South 442 509 36,000 50 Climbing Atlanta Center
Mon 03:17:28 PM 35.6125 -82.6747 179° South 442 509 36,000  Level Atlanta Center
Mon 03:18:28 PM 35.4894 -82.6742 180° South 437 503 36,000  Level Atlanta Center
Mon 03:19:28 PM 35.3664 -82.6711 179° South 442 509 36,000  Level Atlanta Center
Mon 03:20:28 PM 35.2453 -82.6656 178° South 442 509 36,000  Level Atlanta Center
Mon 03:21:28 PM 35.1244 -82.6675 181° South 442 509 36,000  Level Atlanta Center
Mon 03:22:28 PM 35.0011 -82.6644 179° South 442 509 36,000  Level Atlanta Center
Mon 03:23:28 PM 34.8781 -82.6589 178° South 442 509 36,000  Level Atlanta Center
Mon 03:24:28 PM 34.7569 -82.6583 180° South 442 509 36,000  Level Atlanta Center
Mon 03:25:28 PM 34.6339 -82.6528 178° South 442 509 36,000  Level Atlanta Center
Mon 03:26:28 PM 34.5106 -82.6497 179° South 442 509 36,000  Level Atlanta Center
Mon 03:27:28 PM 34.3875 -82.6469 179° South 442 509 36,000  Level Atlanta Center
Mon 03:28:28 PM 34.2664 -82.6439 179° South 442 509 36,000  Level Atlanta Center
Mon 03:29:28 PM 34.1453 -82.6408 179° South 437 503 36,000  Level Atlanta Center
Mon 03:30:28 PM 34.0367 -82.6400 180° South 443 510 36,000  Level Atlanta Center
Mon 03:31:28 PM 33.9178 -82.6394 180° South 437 503 36,000  Level Atlanta Center
Mon 03:32:28 PM 33.7947 -82.6414 181° South 437 503 36,000  Level Atlanta Center
Mon 03:33:28 PM 33.6672 -82.6336 177° South 447 514 36,000  Level Atlanta Center
Mon 03:34:28 PM 33.5442 -82.6306 179° South 447 514 36,000  Level Atlanta Center
Mon 03:35:28 PM 33.4103 -82.6253 178° South 435 501 36,000  Level Atlanta Center
Mon 03:36:28 PM 33.2914 -82.6222 179° South 440 506 36,000  Level Atlanta Center
Mon 03:37:28 PM 33.1722 -82.6167 178° South 440 506 36,000  Level Atlanta Center
Mon 03:39:57 PM 32.8822 -82.6106 179° South 435 501 36,000  Level Jacksonville Center
Mon 03:40:57 PM 32.7611 -82.6061 178° South 442 509 36,000  Level Jacksonville Center
Mon 03:41:57 PM 32.6381 -82.6039 179° South 442 509 36,000  Level Jacksonville Center
Mon 03:42:57 PM 32.5128 -82.6019 179° South 442 509 36,000  Level Jacksonville Center
Mon 03:43:57 PM 32.3811 -82.5950 177° South 442 509 36,000  Level Jacksonville Center
Mon 03:44:57 PM 32.2581 -82.5928 179° South 442 509 36,000  Level Jacksonville Center
Mon 03:45:57 PM 32.1306 -82.5883 178° South 442 509 36,000  Level Jacksonville Center
Mon 03:46:57 PM 32.0094 -82.5864 179° South 442 509 36,000  Level Jacksonville Center
Mon 03:47:57 PM 31.8842 -82.5844 179° South 442 509 36,000  Level Jacksonville Center
Mon 03:48:57 PM 31.7589 -82.5725 175° South 442 509 36,000  Level Jacksonville Center
Mon 03:49:57 PM 31.6400 -82.5583 174° South 442 509 36,000  Level Jacksonville Center
Mon 03:50:57 PM 31.5147 -82.5464 175° South 442 509 36,000  Level Jacksonville Center
Mon 03:51:57 PM 31.3914 -82.5347 175° South 442 509 36,000 -50 Level Jacksonville Center
Mon 03:52:57 PM 31.2828 -82.5281 177° South 442 509 35,900 -50 Descending Jacksonville Center
Mon 03:53:57 PM 31.1575 -82.5164 175° South 442 509 35,900 50 Level Jacksonville Center
Mon 03:54:57 PM 31.0322 -82.5022 174° South 447 514 36,000 50 Climbing Jacksonville Center
Mon 03:55:57 PM 30.9111 -82.4906 175° South 447 514 36,000 -50 Level Jacksonville Center
Mon 03:56:57 PM 30.7878 -82.4792 175° South 447 514 35,900  Descending Jacksonville Center
Mon 03:57:57 PM 30.6647 -82.4650 174° South 442 509 36,000 50 Climbing Jacksonville Center
Mon 03:58:57 PM 30.5392 -82.4536 176° South 442 509 36,000 -50 Level Jacksonville Center
Mon 03:59:57 PM 30.4181 -82.4422 175° South 442 509 35,900 -150 Descending Jacksonville Center
Mon 04:00:57 PM 30.2950 -82.4306 175° South 442 509 35,700 -600 Descending Jacksonville Center
Mon 04:01:57 PM 30.1717 -82.4192 175° South 442 509 34,700 -950 Descending Jacksonville Center
Mon 04:02:57 PM 30.0464 -82.4056 175° South 442 509 33,800 -1,000 Descending Jacksonville Center
Mon 04:03:57 PM 29.9231 -82.3892 173° South 442 509 32,700 -1,300 Descending Jacksonville Center
Mon 04:04:57 PM 29.8000 -82.3781 176° South 442 509 31,200 -1,550 Descending Jacksonville Center
Mon 04:05:57 PM 29.6747 -82.3667 175° South 442 509 29,600 -2,850 Descending Jacksonville Center
Mon 04:06:57 PM 29.5619 -82.3553 175° South 421 484 25,500 -2,850 Descending Jacksonville Center
Mon 04:07:57 PM 29.4489 -82.3417 174° South 415 478 23,900 -950 Descending Jacksonville Center
Mon 04:08:57 PM 29.3383 -82.3281 174° South 410 472 23,600 -1,150 Descending Jacksonville Center
Mon 04:09:57 PM 29.2297 -82.3144 174° South 399 459 21,600 -1,950 Descending Jacksonville Center
Mon 04:10:57 PM 29.1233 -82.3008 174° South 399 459 19,700 -1,900 Descending Jacksonville Center
Mon 04:11:57 PM 29.0189 -82.2894 175° South 393 452 17,800 -1,750 Descending Jacksonville Center
Mon 04:12:57 PM 28.9289 -82.2781 174° South 377 434 16,200 -1,683 Descending Jacksonville Center
Mon 04:14:41 PM 28.7536 -82.2594 175° South 352 405 13,200 -1,699 Descending Miami Center
Mon 04:15:43 PM 28.6589 -82.2572 179° South 339 390 11,500 -1,417 Descending Miami Center
Mon 04:16:48 PM 28.5833 -82.3333 222° Southwest 321 369 10,200 -692 Descending Tampa TRACON
Mon 04:17:53 PM 28.5333 -82.4167 236° Southwest 305 351 10,000 -48 Descending Tampa TRACON
Mon 04:18:54 PM 28.5000 -82.5000 246° West 306 352 10,100  Climbing Tampa TRACON
Mon 04:19:54 PM 28.4500 -82.5833 236° Southwest 307 353 10,000 -50 Descending Tampa TRACON
Mon 04:20:54 PM 28.4000 -82.6667 236° Southwest 308 354 10,000  Level Tampa TRACON
Mon 04:21:54 PM 28.3625 -82.7414 240° Southwest 307 353 10,000 -492 Level Miami Center
Mon 04:22:56 PM 28.3178 -82.8242 238° Southwest 308 354 9,000 -484 Descending Miami Center
Mon 04:23:58 PM 28.2700 -82.8864 229° Southwest 282 325 9,000 -581 Level Miami Center
Mon 04:25:00 PM 28.1853 -82.8886 181° South 259 298 7,800 -1,113 Descending Miami Center
Mon 04:26:02 PM 28.1208 -82.8886 180° South 242 278 6,700 -919 Descending Miami Center
Mon 04:27:04 PM 28.0578 -82.8878 179° South 231 266 5,900 -804 Descending Miami Center
Mon 04:27:54 PM 28.0167 -82.8667 156° South 181 208 5,200 -1,154 Descending Tampa TRACON
Mon 04:28:48 PM 27.9667 -82.8500 164° South 187 215 3,900 -1,316 Descending Tampa TRACON
Mon 04:29:48 PM 27.9333 -82.8167 139° Southeast 192 221 2,700 -650 Descending Tampa TRACON
Mon 04:30:48 PM 27.8833 -82.7833 149° Southeast 194 223 2,600 -50 Descending Tampa TRACON
Mon 04:31:48 PM 27.8333 -82.7667 164° South 176 203 2,600 -350 Level Tampa TRACON
Mon 04:32:48 PM 27.8333 -82.7167 90° East 148 170 1,900 -850 Descending Tampa TRACON
Mon 04:33:48 PM 27.8500 -82.6833 61° Northeast 139 160 900 -636 Descending Tampa TRACON
Mon 04:35:19 PM 27.9081 -82.6864 357° North 151 174 300 -396 Descending Miami Center

Login

Don't have an account? Register now (free) for customized features, flight alerts, and more!